createdAt,value
2023-10-02T00:02:38.340Z,100624.50
2023-10-02T00:05:06.691Z,100615.88
2023-10-02T00:07:37.474Z,100621.97
2023-10-02T00:10:05.871Z,100618.47
2023-10-02T00:12:36.002Z,100626.31
2023-10-02T00:15:15.055Z,100635.84
2023-10-02T00:17:45.548Z,100629.78
2023-10-02T00:20:22.233Z,100622.00
2023-10-02T00:22:51.352Z,100623.75
2023-10-02T00:25:21.158Z,100616.88
2023-10-02T00:27:53.172Z,100618.59
2023-10-02T00:30:22.861Z,100612.50
2023-10-02T00:32:51.773Z,100615.97
2023-10-02T00:35:18.771Z,100615.94
2023-10-02T00:37:46.566Z,100618.53
2023-10-02T00:40:30.063Z,100616.75
2023-10-02T00:43:22.540Z,100615.03
2023-10-02T00:45:50.579Z,100615.94
2023-10-02T00:48:27.592Z,100615.09
2023-10-02T00:50:58.031Z,100609.84
2023-10-02T00:53:40.380Z,100610.72
2023-10-02T00:56:22.123Z,100606.50
2023-10-02T00:58:59.961Z,100611.75
2023-10-02T01:01:27.816Z,100606.53
2023-10-02T01:04:12.309Z,100603.94
2023-10-02T01:07:06.467Z,100605.69
2023-10-02T01:09:35.312Z,100605.72
2023-10-02T01:12:01.967Z,100607.44
2023-10-02T01:14:51.995Z,100612.59
2023-10-02T01:17:22.414Z,100614.34
2023-10-02T01:19:56.965Z,100609.13
2023-10-02T01:22:29.531Z,100611.72
2023-10-02T01:25:19.483Z,100617.81
2023-10-02T01:27:52.393Z,100619.53
2023-10-02T01:30:22.195Z,100619.56
2023-10-02T01:33:18.758Z,100604.00
2023-10-02T01:35:50.535Z,100627.41
2023-10-02T01:38:23.169Z,100625.69
2023-10-02T01:40:55.180Z,100623.97
2023-10-02T01:43:23.870Z,100623.13
2023-10-02T01:45:50.370Z,100630.94
2023-10-02T01:48:37.948Z,100616.22
2023-10-02T01:51:24.836Z,100623.13
2023-10-02T01:54:20.273Z,100624.88
2023-10-02T01:56:46.874Z,100621.41
2023-10-02T01:59:21.017Z,100622.25
2023-10-02T02:02:13.908Z,100625.72
2023-10-02T02:04:41.017Z,100630.06
2023-10-02T02:07:09.876Z,100630.94
2023-10-02T02:09:38.466Z,100621.41
2023-10-02T02:12:08.086Z,100622.28
2023-10-02T02:14:51.094Z,100614.47
2023-10-02T02:17:26.965Z,100618.78
2023-10-02T02:19:55.977Z,100620.50
2023-10-02T02:22:26.776Z,100631.78
2023-10-02T02:24:59.527Z,100627.44
2023-10-02T02:27:26.890Z,100631.78
2023-10-02T02:29:56.001Z,100634.38
2023-10-02T02:32:37.972Z,100638.72
2023-10-02T02:35:10.319Z,100637.84
2023-10-02T02:37:37.083Z,100626.59
2023-10-02T02:40:23.157Z,100628.34
2023-10-02T02:42:54.197Z,100634.38
2023-10-02T02:45:32.329Z,100635.25
2023-10-02T02:48:08.773Z,100637.84
2023-10-02T02:50:37.433Z,100637.00
2023-10-02T02:53:23.484Z,100637.88
2023-10-02T02:56:11.555Z,100641.31
2023-10-02T02:58:39.350Z,100643.91
2023-10-02T03:01:13.140Z,100651.69
2023-10-02T03:03:42.901Z,100651.72
2023-10-02T03:06:32.864Z,100650.00
2023-10-02T03:08:59.587Z,100652.59
2023-10-02T03:11:30.393Z,100649.13
2023-10-02T03:14:15.408Z,100643.94
2023-10-02T03:16:46.744Z,100650.00
2023-10-02T03:19:15.103Z,100645.66
2023-10-02T03:21:43.703Z,100650.88
2023-10-02T03:24:13.904Z,100652.56
2023-10-02T03:26:40.586Z,100650.88
2023-10-02T03:29:13.220Z,100656.06
2023-10-02T03:31:50.875Z,100662.09
2023-10-02T03:34:33.323Z,100665.56
2023-10-02T03:37:15.838Z,100662.13
2023-10-02T03:40:02.874Z,100663.84
2023-10-02T03:42:34.198Z,100661.25
2023-10-02T03:45:05.397Z,100662.09
2023-10-02T03:47:35.072Z,100662.13
2023-10-02T03:50:03.374Z,100660.38
2023-10-02T03:52:34.884Z,100661.25
2023-10-02T03:55:15.907Z,100649.13
2023-10-02T03:57:50.256Z,100667.25
2023-10-02T04:00:44.468Z,100666.41
2023-10-02T04:03:15.792Z,100672.44
2023-10-02T04:05:45.507Z,100675.03
2023-10-02T04:08:32.212Z,100666.38
2023-10-02T04:11:02.546Z,100668.09
2023-10-02T04:13:35.993Z,100663.72
2023-10-02T04:16:24.908Z,100668.03
2023-10-02T04:19:00.042Z,100656.75
2023-10-02T04:21:28.438Z,100654.16
2023-10-02T04:23:55.891Z,100652.38
2023-10-02T04:26:23.928Z,100661.88
2023-10-02T04:28:59.985Z,100672.22
2023-10-02T04:31:29.220Z,100673.94
2023-10-02T04:34:15.360Z,100673.09
2023-10-02T04:36:42.881Z,100679.16
2023-10-02T04:39:31.360Z,100676.53
2023-10-02T04:42:15.827Z,100680.03
2023-10-02T04:44:47.951Z,100675.72
2023-10-02T04:47:21.825Z,100673.97
2023-10-02T04:50:20.845Z,100679.13
2023-10-02T04:53:21.278Z,100680.88
2023-10-02T04:55:50.189Z,100695.53
2023-10-02T04:58:21.443Z,100696.38
2023-10-02T05:01:06.296Z,100694.63
2023-10-02T05:03:38.536Z,100710.19
2023-10-02T05:06:06.058Z,100703.31
2023-10-02T05:09:03.429Z,100717.16
2023-10-02T05:11:47.312Z,100714.56
2023-10-02T05:14:16.808Z,100716.22
2023-10-02T05:16:47.526Z,100714.47
2023-10-02T05:19:16.975Z,100719.63
2023-10-02T05:22:05.396Z,100725.75
2023-10-02T05:24:33.227Z,100726.63
2023-10-02T05:27:00.805Z,100726.66
2023-10-02T05:29:42.562Z,100709.31
2023-10-02T05:32:24.375Z,100730.09
2023-10-02T05:35:06.117Z,100724.91
2023-10-02T05:37:35.230Z,100730.00
2023-10-02T05:40:21.670Z,100728.25
2023-10-02T05:43:02.209Z,100732.53
2023-10-02T05:45:46.473Z,100737.72
2023-10-02T05:48:28.922Z,100737.75
2023-10-02T05:50:58.172Z,100740.34
2023-10-02T05:53:27.540Z,100749.03
2023-10-02T05:56:07.743Z,100747.22
2023-10-02T05:58:42.620Z,100746.28
2023-10-02T06:01:25.189Z,100747.16
2023-10-02T06:03:58.817Z,100748.00
2023-10-02T06:06:29.013Z,100750.44
2023-10-02T06:09:02.262Z,100751.28
2023-10-02T06:11:36.702Z,100761.63
2023-10-02T06:14:10.912Z,100775.50
2023-10-02T06:16:42.396Z,100774.56
2023-10-02T06:19:15.759Z,100774.56
2023-10-02T06:21:47.705Z,100758.88
2023-10-02T06:24:19.490Z,100779.56
2023-10-02T06:26:59.804Z,100782.84
2023-10-02T06:29:30.587Z,100788.03
2023-10-02T06:32:04.246Z,100776.66
2023-10-02T06:34:38.710Z,100772.22
2023-10-02T06:37:13.360Z,100772.16
2023-10-02T06:39:48.270Z,100772.59
2023-10-02T06:42:20.593Z,100780.25
2023-10-02T06:44:56.331Z,100769.41
2023-10-02T06:47:30.295Z,100760.34
2023-10-02T06:50:04.863Z,100760.00
2023-10-02T06:52:33.432Z,100767.31
2023-10-02T06:55:02.488Z,100770.50
2023-10-02T06:57:29.821Z,100769.38
2023-10-02T06:59:56.567Z,100773.66
2023-10-02T07:02:28.483Z,100780.00
2023-10-02T07:04:57.139Z,100774.03
2023-10-02T07:07:28.118Z,100777.38
2023-10-02T07:09:56.711Z,100779.69
2023-10-02T07:12:29.122Z,100780.41
2023-10-02T07:15:11.980Z,100779.22
2023-10-02T07:17:49.812Z,100783.97
2023-10-02T07:20:19.381Z,100784.16
2023-10-02T07:22:46.741Z,100781.16
2023-10-02T07:25:13.412Z,100776.56
2023-10-02T07:27:42.507Z,100781.38
2023-10-02T07:30:10.625Z,100784.41
2023-10-02T07:32:37.292Z,100789.78
2023-10-02T07:35:23.177Z,100785.22
2023-10-02T07:37:59.451Z,100781.53
2023-10-02T07:40:49.895Z,100776.25
2023-10-02T07:43:20.148Z,100784.47
2023-10-02T07:46:03.343Z,100782.72
2023-10-02T07:48:37.181Z,100798.66
2023-10-02T07:51:07.844Z,100796.75
2023-10-02T07:53:40.587Z,100796.50
2023-10-02T07:56:13.050Z,100800.78
2023-10-02T07:58:40.464Z,100786.25
2023-10-02T08:01:12.614Z,100785.69
2023-10-02T08:03:46.117Z,100799.25
2023-10-02T08:06:23.266Z,100797.75
2023-10-02T08:09:14.092Z,100803.88
2023-10-02T08:11:52.151Z,100801.50
2023-10-02T08:14:38.996Z,100803.56
2023-10-02T08:17:19.448Z,100797.75
2023-10-02T08:19:57.734Z,100801.63
2023-10-02T08:22:36.951Z,100798.63
2023-10-02T08:25:14.917Z,100777.38
2023-10-02T08:27:47.460Z,100799.06
2023-10-02T08:30:29.938Z,100790.91
2023-10-02T08:33:11.812Z,100794.13
2023-10-02T08:35:56.358Z,100794.69
2023-10-02T08:38:23.347Z,100789.06
2023-10-02T08:40:58.549Z,100790.88
2023-10-02T08:43:29.675Z,100792.38
2023-10-02T08:45:57.027Z,100786.53
2023-10-02T08:48:26.477Z,100785.34
2023-10-02T08:50:59.714Z,100789.56
2023-10-02T08:53:27.550Z,100792.00
2023-10-02T08:56:22.891Z,100794.72
2023-10-02T08:59:10.067Z,100799.50
2023-10-02T09:01:36.802Z,100796.06
2023-10-02T09:04:24.379Z,100791.69
2023-10-02T09:06:54.461Z,100796.41
2023-10-02T09:09:26.789Z,100793.72
2023-10-02T09:11:58.050Z,100784.84
2023-10-02T09:14:32.054Z,100787.94
2023-10-02T09:17:24.117Z,100785.28
2023-10-02T09:19:59.676Z,100777.91
2023-10-02T09:22:28.844Z,100775.50
2023-10-02T09:25:28.331Z,100775.72
2023-10-02T09:28:00.861Z,100774.59
2023-10-02T09:30:42.115Z,100773.03
2023-10-02T09:33:39.483Z,100771.75
2023-10-02T09:37:06.944Z,100775.50
2023-10-02T09:39:19.787Z,100770.91
2023-10-02T09:41:47.783Z,100765.88
2023-10-02T09:44:22.581Z,100769.09
2023-10-02T09:46:53.269Z,100770.91
2023-10-02T09:49:31.733Z,100765.88
2023-10-02T09:52:17.065Z,100775.78
2023-10-02T09:54:49.808Z,100766.69
2023-10-02T09:57:21.900Z,100768.44
2023-10-02T09:59:48.641Z,100768.03
2023-10-02T10:02:22.430Z,100758.97
2023-10-02T10:05:04.215Z,100767.56
2023-10-02T10:08:04.459Z,100767.72
2023-10-02T10:10:51.102Z,100756.16
2023-10-02T10:13:34.016Z,100757.59
2023-10-02T10:16:19.779Z,100763.22
2023-10-02T10:19:07.912Z,100758.75
2023-10-02T10:21:57.776Z,100754.56
2023-10-02T10:24:57.680Z,100760.50
2023-10-02T10:27:39.924Z,100749.91
2023-10-02T10:30:36.724Z,100759.28
2023-10-02T10:33:17.173Z,100750.25
2023-10-02T10:35:52.490Z,100752.97
2023-10-02T10:38:30.290Z,100751.63
2023-10-02T10:41:06.895Z,100744.31
2023-10-02T10:43:55.955Z,100739.47
2023-10-02T10:46:33.777Z,100743.16
2023-10-02T10:49:28.713Z,100735.72
2023-10-02T10:51:57.988Z,100732.84
2023-10-02T10:54:53.429Z,100732.00
2023-10-02T10:57:23.450Z,100721.19
2023-10-02T11:00:30.050Z,100717.91
2023-10-02T11:03:10.107Z,100710.75
2023-10-02T11:05:38.522Z,100713.94
2023-10-02T11:08:27.671Z,100707.50
2023-10-02T11:11:05.471Z,100705.13
2023-10-02T11:13:59.632Z,100706.47
2023-10-02T11:16:32.415Z,100705.31
2023-10-02T11:19:15.161Z,100699.34
2023-10-02T11:22:15.839Z,100692.28
2023-10-02T11:24:46.081Z,100691.66
2023-10-02T11:27:16.255Z,100695.31
2023-10-02T11:29:44.457Z,100689.28
2023-10-02T11:32:22.813Z,100698.22
2023-10-02T11:35:00.657Z,100682.91
2023-10-02T11:37:27.935Z,100693.63
2023-10-02T11:39:56.914Z,100679.66
2023-10-02T11:42:24.425Z,100683.88
2023-10-02T11:44:51.251Z,100678.97
2023-10-02T11:47:17.930Z,100674.47
2023-10-02T11:49:46.144Z,100672.78
2023-10-02T11:52:12.744Z,100675.06
2023-10-02T11:54:40.972Z,100665.75
2023-10-02T11:57:11.434Z,100668.38
2023-10-02T11:59:42.702Z,100659.81
2023-10-02T12:02:13.506Z,100658.72
2023-10-02T12:04:40.382Z,100658.47
2023-10-02T12:07:08.062Z,100654.69
2023-10-02T12:09:35.233Z,100655.28
2023-10-02T12:12:02.163Z,100647.16
2023-10-02T12:14:29.978Z,100655.78
2023-10-02T12:16:58.866Z,100653.59
2023-10-02T12:19:37.159Z,100648.63
2023-10-02T12:22:09.551Z,100647.78
2023-10-02T12:24:37.860Z,100642.72
2023-10-02T12:27:05.753Z,100644.50
2023-10-02T12:29:32.399Z,100638.19
2023-10-02T12:32:02.324Z,100645.19
2023-10-02T12:34:29.453Z,100632.09
2023-10-02T12:36:56.599Z,100629.28
2023-10-02T12:39:27.646Z,100633.47
2023-10-02T12:41:54.822Z,100628.25
2023-10-02T12:44:22.840Z,100626.88
2023-10-02T12:46:52.374Z,100623.38
2023-10-02T12:49:22.568Z,100625.41
2023-10-02T12:51:51.704Z,100616.72
2023-10-02T12:54:18.345Z,100616.25
2023-10-02T12:56:46.983Z,100612.59
2023-10-02T12:59:13.770Z,100613.47
2023-10-02T13:01:40.492Z,100612.34
2023-10-02T13:04:08.016Z,100609.69
2023-10-02T13:06:35.317Z,100594.66
2023-10-02T13:09:10.037Z,100594.47
2023-10-02T13:11:46.146Z,100591.53
2023-10-02T13:14:20.300Z,100588.28
2023-10-02T13:16:48.206Z,100591.81
2023-10-02T13:19:15.346Z,100592.16
2023-10-02T13:21:42.815Z,100585.56
2023-10-02T13:24:17.272Z,100584.19
2023-10-02T13:26:45.229Z,100586.50
2023-10-02T13:29:12.278Z,100583.50
2023-10-02T13:31:38.798Z,100579.84
2023-10-02T13:34:08.482Z,100570.22
2023-10-02T13:36:35.563Z,100577.00
2023-10-02T13:39:05.281Z,100573.81
2023-10-02T13:41:32.093Z,100571.97
2023-10-02T13:44:01.000Z,100575.66
2023-10-02T13:46:28.081Z,100571.97
2023-10-02T13:48:54.834Z,100574.00
2023-10-02T13:51:22.839Z,100565.19
2023-10-02T13:53:50.872Z,100569.81
2023-10-02T13:56:18.897Z,100564.63
2023-10-02T13:58:51.523Z,100554.69
2023-10-02T14:01:26.053Z,100555.94
2023-10-02T14:03:55.208Z,100558.13
2023-10-02T14:06:24.767Z,100554.75
2023-10-02T14:08:52.263Z,100547.13
2023-10-02T14:11:24.346Z,100552.31
2023-10-02T14:13:52.605Z,100546.78
2023-10-02T14:16:22.777Z,100541.41
2023-10-02T14:18:54.615Z,100543.16
2023-10-02T14:21:25.914Z,100545.13
2023-10-02T14:23:54.736Z,100535.91
2023-10-02T14:26:23.714Z,100538.91
2023-10-02T14:28:52.535Z,100538.38
2023-10-02T14:31:33.531Z,100544.31
2023-10-02T14:34:01.435Z,100539.28
2023-10-02T14:36:30.359Z,100543.34
2023-10-02T14:38:58.756Z,100550.38
2023-10-02T14:41:29.566Z,100528.44
2023-10-02T14:43:58.332Z,100532.72
2023-10-02T14:46:25.371Z,100536.63
2023-10-02T14:48:52.173Z,100524.34
2023-10-02T14:51:19.817Z,100534.22
2023-10-02T14:53:46.953Z,100533.31
2023-10-02T14:56:14.089Z,100534.63
2023-10-02T14:58:48.994Z,100538.00
2023-10-02T15:01:18.735Z,100526.94
2023-10-02T15:03:46.540Z,100538.56
2023-10-02T15:06:15.151Z,100533.56
2023-10-02T15:08:42.499Z,100528.34
2023-10-02T15:11:14.628Z,100533.97
2023-10-02T15:13:42.547Z,100529.25
2023-10-02T15:16:16.908Z,100539.00
2023-10-02T15:18:43.900Z,100527.03
2023-10-02T15:21:11.580Z,100534.88
2023-10-02T15:23:38.768Z,100532.22
2023-10-02T15:26:05.499Z,100534.66
2023-10-02T15:28:32.506Z,100532.50
2023-10-02T15:30:59.721Z,100530.91
2023-10-02T15:33:26.610Z,100524.53
2023-10-02T15:35:54.411Z,100532.44
2023-10-02T15:38:21.130Z,100535.19
2023-10-02T15:40:48.200Z,100535.22
2023-10-02T15:43:15.999Z,100531.50
2023-10-02T15:45:44.434Z,100529.38
2023-10-02T15:48:11.060Z,100535.69
2023-10-02T15:50:37.638Z,100534.19
2023-10-02T15:53:04.388Z,100535.81
2023-10-02T15:55:30.896Z,100538.25
2023-10-02T15:57:57.726Z,100531.97
2023-10-02T16:00:27.410Z,100538.47
2023-10-02T16:02:55.169Z,100538.78
2023-10-02T16:05:23.348Z,100543.59
2023-10-02T16:07:53.363Z,100540.19
2023-10-02T16:10:24.805Z,100541.97
2023-10-02T16:12:53.534Z,100540.56
2023-10-02T16:15:24.988Z,100543.00
2023-10-02T16:17:55.001Z,100544.03
2023-10-02T16:20:23.791Z,100542.91
2023-10-02T16:22:52.220Z,100541.59
2023-10-02T16:25:20.683Z,100548.75
2023-10-02T16:27:52.237Z,100553.84
2023-10-02T16:30:21.020Z,100544.00
2023-10-02T16:32:49.792Z,100539.88
2023-10-02T16:35:17.836Z,100542.63
2023-10-02T16:37:44.739Z,100555.78
2023-10-02T16:40:13.424Z,100548.13
2023-10-02T16:42:40.767Z,100535.50
2023-10-02T16:45:12.357Z,100550.72
2023-10-02T16:47:42.115Z,100555.53
2023-10-02T16:50:13.326Z,100562.69
2023-10-02T16:52:48.904Z,100566.59
2023-10-02T16:55:22.881Z,100565.50
2023-10-02T16:57:51.814Z,100561.19
2023-10-02T17:00:24.416Z,100554.84
2023-10-02T17:02:52.882Z,100562.00
2023-10-02T17:05:20.316Z,100564.75
2023-10-02T17:07:50.899Z,100562.47
2023-10-02T17:10:22.231Z,100566.22
2023-10-02T17:12:50.684Z,100564.13
2023-10-02T17:15:19.763Z,100547.75
2023-10-02T17:17:50.061Z,100569.03
2023-10-02T17:20:18.530Z,100568.31
2023-10-02T17:22:46.529Z,100577.75
2023-10-02T17:25:15.211Z,100580.81
2023-10-02T17:27:42.760Z,100581.13
2023-10-02T17:30:13.528Z,100580.34
2023-10-02T17:32:41.336Z,100578.66
2023-10-02T17:35:11.387Z,100572.78
2023-10-02T17:37:41.163Z,100585.88
2023-10-02T17:40:11.865Z,100583.66
2023-10-02T17:42:39.455Z,100589.16
2023-10-02T17:45:10.113Z,100586.34
2023-10-02T17:47:38.018Z,100586.59
2023-10-02T17:50:06.299Z,100585.97
2023-10-02T17:52:33.075Z,100591.41
2023-10-02T17:55:00.700Z,100589.06
2023-10-02T17:57:27.418Z,100592.72
2023-10-02T17:59:55.395Z,100595.44
2023-10-02T18:02:22.262Z,100597.34
2023-10-02T18:04:54.459Z,100588.78
2023-10-02T18:07:21.790Z,100592.22
2023-10-02T18:09:51.486Z,100594.91
2023-10-02T18:12:18.609Z,100600.44
2023-10-02T18:14:45.236Z,100596.78
2023-10-02T18:17:13.282Z,100594.63
2023-10-02T18:19:40.034Z,100598.72
2023-10-02T18:22:07.239Z,100596.28
2023-10-02T18:24:33.774Z,100598.75
2023-10-02T18:27:01.361Z,100607.75
2023-10-02T18:29:29.901Z,100591.16
2023-10-02T18:31:56.847Z,100591.94
2023-10-02T18:34:40.786Z,100599.88
2023-10-02T18:37:09.973Z,100602.88
2023-10-02T18:39:36.453Z,100605.63
2023-10-02T18:42:04.945Z,100606.72
2023-10-02T18:44:38.192Z,100604.91
2023-10-02T18:47:05.298Z,100605.16
2023-10-02T18:49:36.342Z,100619.13
2023-10-02T18:52:04.108Z,100614.84
2023-10-02T18:54:30.601Z,100614.16
2023-10-02T18:56:59.463Z,100609.97
2023-10-02T18:59:26.145Z,100609.13
2023-10-02T19:01:52.892Z,100617.94
2023-10-02T19:04:19.535Z,100618.94
2023-10-02T19:06:46.761Z,100604.94
2023-10-02T19:09:18.477Z,100604.09
2023-10-02T19:11:48.075Z,100612.84
2023-10-02T19:14:14.767Z,100614.75
2023-10-02T19:16:42.304Z,100617.41
2023-10-02T19:19:08.959Z,100613.13
2023-10-02T19:21:36.323Z,100621.94
2023-10-02T19:24:03.772Z,100626.28
2023-10-02T19:26:37.143Z,100626.50
2023-10-02T19:29:04.106Z,100613.47
2023-10-02T19:31:31.455Z,100607.34
2023-10-02T19:33:58.654Z,100610.84
2023-10-02T19:36:25.476Z,100618.69
2023-10-02T19:38:52.254Z,100614.38
2023-10-02T19:41:20.133Z,100613.47
2023-10-02T19:43:50.675Z,100609.41
2023-10-02T19:46:17.552Z,100607.75
2023-10-02T19:48:44.388Z,100612.09
2023-10-02T19:51:15.859Z,100594.75
2023-10-02T19:53:44.381Z,100610.47
2023-10-02T19:56:13.434Z,100613.16
2023-10-02T19:58:40.191Z,100611.50
2023-10-02T20:01:06.741Z,100606.41
2023-10-02T20:03:34.294Z,100607.31
2023-10-02T20:06:07.534Z,100613.44
2023-10-02T20:08:35.245Z,100604.94
2023-10-02T20:11:03.506Z,100609.22
2023-10-02T20:13:30.034Z,100615.25
2023-10-02T20:15:57.363Z,100614.47
2023-10-02T20:18:23.937Z,100614.50
2023-10-02T20:20:50.595Z,100618.81
2023-10-02T20:23:17.543Z,100614.53
2023-10-02T20:25:44.874Z,100612.91
2023-10-02T20:28:12.455Z,100614.75
2023-10-02T20:30:40.153Z,100621.75
2023-10-02T20:33:11.103Z,100609.66
2023-10-02T20:35:39.756Z,100620.06
2023-10-02T20:38:06.431Z,100617.47
2023-10-02T20:40:36.542Z,100614.84
2023-10-02T20:43:04.717Z,100619.34
2023-10-02T20:45:37.573Z,100615.78
2023-10-02T20:48:06.794Z,100607.25
2023-10-02T20:50:34.534Z,100619.44
2023-10-02T20:53:01.455Z,100617.75
2023-10-02T20:55:27.989Z,100620.31
2023-10-02T20:57:56.282Z,100623.94
2023-10-02T21:00:23.402Z,100620.47
2023-10-02T21:02:50.931Z,100614.50
2023-10-02T21:05:17.762Z,100628.31
2023-10-02T21:07:44.570Z,100631.81
2023-10-02T21:10:11.116Z,100629.22
2023-10-02T21:12:40.838Z,100626.66
2023-10-02T21:15:13.140Z,100630.97
2023-10-02T21:17:41.368Z,100627.47
2023-10-02T21:20:20.148Z,100633.53
2023-10-02T21:22:46.984Z,100638.78
2023-10-02T21:25:17.068Z,100631.16
2023-10-02T21:27:44.068Z,100630.19
2023-10-02T21:30:14.087Z,100634.59
2023-10-02T21:32:42.731Z,100629.28
2023-10-02T21:35:10.594Z,100624.97
2023-10-02T21:37:37.433Z,100627.63
2023-10-02T21:40:07.687Z,100631.25
2023-10-02T21:42:35.558Z,100617.41
2023-10-02T21:45:03.128Z,100616.50
2023-10-02T21:47:30.699Z,100625.22
2023-10-02T21:49:58.164Z,100620.16
2023-10-02T21:52:24.921Z,100615.75
2023-10-02T21:54:55.110Z,100615.78
2023-10-02T21:57:23.402Z,100613.25
2023-10-02T21:59:50.790Z,100620.09
2023-10-02T22:02:19.130Z,100609.78
2023-10-02T22:04:47.077Z,100602.81
2023-10-02T22:07:13.897Z,100615.03
2023-10-02T22:09:41.131Z,100612.50
2023-10-02T22:12:08.173Z,100609.91
2023-10-02T22:14:35.295Z,100613.38
2023-10-02T22:17:08.048Z,100609.03
2023-10-02T22:19:34.621Z,100609.91
2023-10-02T22:22:01.128Z,100612.56
2023-10-02T22:24:28.655Z,100602.19
2023-10-02T22:26:55.197Z,100605.66
2023-10-02T22:29:21.808Z,100611.78
2023-10-02T22:31:48.536Z,100609.22
2023-10-02T22:34:30.318Z,100610.94
2023-10-02T22:37:02.331Z,100616.16
2023-10-02T22:39:29.797Z,100613.56
2023-10-02T22:41:56.398Z,100609.25
2023-10-02T22:44:24.121Z,100615.25
2023-10-02T22:46:50.687Z,100611.84
2023-10-02T22:49:17.735Z,100610.19
2023-10-02T22:51:45.245Z,100606.72
2023-10-02T22:54:11.916Z,100606.72
2023-10-02T22:56:39.083Z,100602.38
2023-10-02T22:59:05.766Z,100606.72
2023-10-02T23:01:32.562Z,100605.97
2023-10-02T23:04:02.085Z,100608.56
2023-10-02T23:06:30.750Z,100612.91
2023-10-02T23:08:58.513Z,100607.72
2023-10-02T23:11:26.278Z,100610.31
2023-10-02T23:13:55.986Z,100603.41
2023-10-02T23:16:23.675Z,100607.69
2023-10-02T23:18:50.790Z,100606.88
2023-10-02T23:21:18.309Z,100607.72
2023-10-02T23:23:46.369Z,100610.34
2023-10-02T23:26:17.259Z,100608.66
2023-10-02T23:28:43.810Z,100613.78
2023-10-02T23:31:11.019Z,100606.91
2023-10-02T23:33:38.148Z,100605.16
2023-10-02T23:36:09.496Z,100603.47
2023-10-02T23:38:36.167Z,100610.41
2023-10-02T23:41:02.688Z,100612.19
2023-10-02T23:43:29.510Z,100605.22
2023-10-02T23:45:56.185Z,100608.75
2023-10-02T23:48:24.203Z,100603.56
2023-10-02T23:50:56.042Z,100611.34
2023-10-02T23:53:26.371Z,100607.00
2023-10-02T23:56:00.139Z,100600.06
2023-10-02T23:58:27.398Z,100602.72
